SBGR/GRU METAR and TAF weather

Enter ICAO airport designator
Station Type Date Time Source
SBGR METAR 2019/08/19 02:00 UTC NOAA

SBGR 190200Z 19004KT 9999 BKN013 17/15 Q1021


Station Type Date Time Source
SBGR Decoded METAR 2019/08/19 02:00 UTC NOAA

Station name not available
Aug 18, 2019 - 10:00 PM EDT / 2019.08.19 0200 UTC
Wind: from the S (190 degrees) at 5 MPH (4 KT):0
Visibility: greater than 7 mile(s):0
Sky conditions: mostly cloudy
Temperature: 62 F (17 C)
Dew Point: 59 F (15 C)
Relative Humidity: 88%
Pressure (altimeter): 30.15 in. Hg (1021 hPa)
ob: SBGR 190200Z 19004KT 9999 BKN013 17/15 Q1021
cycle: 2

Station Type Date Time Source
SBGR TAF 2019/08/19 00:00 UTC NOAA

TAF SBGR 182203Z 1900/2006 00000KT CAVOK TX19/1900Z TN13/2005Z
BECMG 1904/1906 17007KT 8000 BKN011 PROB30 1907/1912 5000 DZ BR BKN006
BECMG 1912/1914 16008KT
BECMG 1918/1920 OVC011 PROB40 1921/1921 5000 DZ BR OVC008
RMK PGM

Example: see airport list